WetterOnline ( http://www.wetteronline.de )

Wetter aktuell Freiburg

Aktuelles Wetter: Freiburg/Flugplatz (236m)

6-stündlich | Neueste Meldungen
Ortszeit Temperatur Wetter
Fr, 17.08. 20:00 25.4° C bewölkt
Fr, 17.08. 14:00 31.2° C leicht bewölkt
Fr, 17.08. 8:00 18.4° C wolkig
Fr, 17.08. 2:00 17.0° C wolkig
Do, 16.08. 20:00 28.9° C leicht bewölkt
Do, 16.08. 14:00 28.7° C wolkenlos
Do, 16.08. 8:00 15.9° C wolkenlos
Do, 16.08. 2:00 14.9° C wolkig
Ortszeit Temperatur Wetter
Fr, 17.08. 20:00 25.4° C bewölkt
Fr, 17.08. 19:50 25.4° C bewölkt
Fr, 17.08. 19:40 25.5° C wolkig
Fr, 17.08. 19:30 25.9° C bewölkt
Fr, 17.08. 19:20 25.9° C bewölkt
Fr, 17.08. 19:10 25.9° C bewölkt
Fr, 17.08. 19:00 25.7° C bewölkt
Fr, 17.08. 18:30 26.0° C bewölkt
Fr, 17.08. 18:00 25.9° C bedeckt
Fr, 17.08. 17:30 26.2° C bedeckt
Fr, 17.08. 17:00 25.8° C bedeckt
Ortszeit Relative Feuchte Sichtweite
Fr, 17.08. 20:00 47% 70 km
Fr, 17.08. 14:00 30% 50 km
Fr, 17.08. 8:00 75% 30 km
Fr, 17.08. 2:00 84% 30 km
Do, 16.08. 20:00 37% 65 km
Do, 16.08. 14:00 36% 30 km
Do, 16.08. 8:00 84% 24 km
Do, 16.08. 2:00 86% 40 km
Ortszeit Relative Feuchte Sichtweite
Fr, 17.08. 20:00 47% 70 km
Fr, 17.08. 19:50 47% -
Fr, 17.08. 19:40 46% -
Fr, 17.08. 19:30 45% 65 km
Fr, 17.08. 19:20 45% -
Fr, 17.08. 19:10 45% -
Fr, 17.08. 19:00 44% 60 km
Fr, 17.08. 18:30 47% 50 km
Fr, 17.08. 18:00 50% 50 km
Fr, 17.08. 17:30 53% 35 km
Fr, 17.08. 17:00 55% 40 km
Ortszeit Niederschlagsmenge Niederschlagsart
Fr, 17.08. 20:00 0.0 l/m2 in 12 Std. -
Fr, 17.08. 14:00 0.0 l/m2 in 6 Std. -
Fr, 17.08. 8:00 0.0 l/m2 in 12 Std. -
Fr, 17.08. 2:00 0.0 l/m2 in 6 Std. -
Do, 16.08. 20:00 0.0 l/m2 in 12 Std. -
Do, 16.08. 14:00 0.0 l/m2 in 6 Std. -
Do, 16.08. 8:00 0.0 l/m2 in 12 Std. -
Do, 16.08. 2:00 0.0 l/m2 in 6 Std. -
Ortszeit Niederschlagsmenge Niederschlagsart
Fr, 17.08. 20:00 0.0 l/m2 in 1 Std. -
Fr, 17.08. 19:50 keine Meldung -
Fr, 17.08. 19:40 keine Meldung -
Fr, 17.08. 19:30 0.0 l/m2 in 1 Std. -
Fr, 17.08. 19:20 keine Meldung -
Fr, 17.08. 19:10 keine Meldung -
Fr, 17.08. 19:00 0.0 l/m2 in 1 Std. -
Fr, 17.08. 18:30 0.0 l/m2 in 1 Std. -
Fr, 17.08. 18:00 0.0 l/m2 in 1 Std. -
Fr, 17.08. 17:30 0.0 l/m2 in 1 Std. -
Fr, 17.08. 17:00 0.0 l/m2 in 1 Std. -
Ortszeit Stärke Spitze Richtung
km/h Bft. km/h Grad Sektor
Fr, 17.08. 20:00 7 2 36 240° SW
Fr, 17.08. 14:00 11 2 22 320° NW
Fr, 17.08. 8:00 4 1 7 180° S
Fr, 17.08. 2:00 0 0 7 - -
Do, 16.08. 20:00 7 2 25 350° N
Do, 16.08. 14:00 6 1 19 340° N
Do, 16.08. 8:00 4 1 7 20° N
Do, 16.08. 2:00 4 1 14 340° N
Ortszeit Stärke Spitze Richtung
km/h Bft. km/h Grad Sektor
Fr, 17.08. 20:00 7 2 18 240° SW
Fr, 17.08. 19:50 7 2 - 240° SW
Fr, 17.08. 19:40 9 2 - 230° SW
Fr, 17.08. 19:30 9 2 15 230° SW
Fr, 17.08. 19:20 9 2 - 230° SW
Fr, 17.08. 19:10 11 2 - 230° SW
Fr, 17.08. 19:00 11 2 22 230° SW
Fr, 17.08. 18:30 11 2 22 230° SW
Fr, 17.08. 18:00 17 3 22 240° SW
Fr, 17.08. 17:30 14 3 22 230° SW
Fr, 17.08. 17:00 13 3 26 210° SW
Ortszeit Untergrenze Bedeckung Gattung
total tief tief mittel hoch
Fr, 17.08. 20:00 1800 m 8/8 4/8 - - -
Fr, 17.08. 14:00 2100 m 2/8 2/8 - - -
Fr, 17.08. 8:00 9000 m 7/8 0/8 - - -
Fr, 17.08. 2:00 9000 m 8/8 0/8 - - -
Do, 16.08. 20:00 10500 m 4/8 0/8 - - -
Do, 16.08. 14:00 - 0/8 0/8 - - -
Do, 16.08. 8:00 2100 m 0/8 0/8 - - -
Do, 16.08. 2:00 10500 m 8/8 0/8 - - -
Ortszeit Bedeckungsgrad in Achtel und Wolkenuntergrenze
Fr, 17.08. 20:00 4(1800m) 8(6600m) 8(9000m)
Fr, 17.08. 19:50 4(1800m) 8(6600m) 8(9000m)
Fr, 17.08. 19:40 3(2100m) 8(6600m) 8(9000m)
Fr, 17.08. 19:30 4(1800m) 8(5400m) 8(6900m)
Fr, 17.08. 19:20 4(1800m) 8(5400m) 8(6900m)
Fr, 17.08. 19:10 4(1800m) 8(5400m) 8(6900m)
Fr, 17.08. 19:00 2(1800m) 7(2100m) 8(5400m)
Fr, 17.08. 18:30 4(1800m) 8(5100m) 8(6000m)
Fr, 17.08. 18:00 6(4500m) 8(5100m)
Fr, 17.08. 17:30 8(4200m) 8(5400m)
Fr, 17.08. 17:00 4(3600m) 7(4200m) 8(5100m)
Ortszeit Luftdruck NN (hPa) Tendenz (hPa in 3 Std.)
Fr, 17.08. 20:00 1016 + 0,8
Fr, 17.08. 14:00 1014 - 0,6
Fr, 17.08. 8:00 1014 + 1,1
Fr, 17.08. 2:00 1014 + 0,3
Do, 16.08. 20:00 1012 - 1,0
Do, 16.08. 14:00 1015 - 1,8
Do, 16.08. 8:00 1019 - 0,1
Do, 16.08. 2:00 1019 - 0,1
Ortszeit Luftdruck NN (hPa) Tendenz (hPa in 3 Std.)
Fr, 17.08. 20:00 1016 + 0,8
Fr, 17.08. 19:50 1016 keine Meldung
Fr, 17.08. 19:40 1016 keine Meldung
Fr, 17.08. 19:30 1016 + 0,5
Fr, 17.08. 19:20 1016 keine Meldung
Fr, 17.08. 19:10 1016 keine Meldung
Fr, 17.08. 19:00 1016 + 0,8
Fr, 17.08. 18:30 1015 + 0,5
Fr, 17.08. 18:00 1015 + 1,1
Fr, 17.08. 17:30 1015 + 1,7
Fr, 17.08. 17:00 1015 + 1,2
Ortszeit Schneehöhe (cm)
Fr, 17.08. 20:00 -
Fr, 17.08. 14:00 -
Fr, 17.08. 8:00 -
Fr, 17.08. 2:00 -
Do, 16.08. 20:00 -
Do, 16.08. 14:00 -
Do, 16.08. 8:00 -
Do, 16.08. 2:00 -
Ortszeit Schneehöhe (cm)
Fr, 17.08. 20:00 -
Fr, 17.08. 19:50 -
Fr, 17.08. 19:40 -
Fr, 17.08. 19:30 -
Fr, 17.08. 19:20 -
Fr, 17.08. 19:10 -
Fr, 17.08. 19:00 -
Fr, 17.08. 18:30 -
Fr, 17.08. 18:00 -
Fr, 17.08. 17:30 -
Fr, 17.08. 17:00 -
Link zu dieser Seite / Seite empfehlen

Das Wetter in ...